sensor_id;sensor_type;location;lat;lon;timestamp;temperature;humidity
3406;DHT22;10008;48.682;9.016;2022-11-23T00:00:25;4.00;99.90
3406;DHT22;10008;48.682;9.016;2022-11-23T00:02:55;4.00;99.90
3406;DHT22;10008;48.682;9.016;2022-11-23T00:05:21;4.00;99.90
3406;DHT22;10008;48.682;9.016;2022-11-23T00:07:47;4.00;99.90
3406;DHT22;10008;48.682;9.016;2022-11-23T00:10:13;3.90;99.90
3406;DHT22;10008;48.682;9.016;2022-11-23T00:12:39;3.90;99.90
3406;DHT22;10008;48.682;9.016;2022-11-23T00:15:06;3.90;99.90
3406;DHT22;10008;48.682;9.016;2022-11-23T00:17:32;3.90;99.90
3406;DHT22;10008;48.682;9.016;2022-11-23T00:19:58;3.90;99.90
3406;DHT22;10008;48.682;9.016;2022-11-23T00:22:24;4.00;99.90
3406;DHT22;10008;48.682;9.016;2022-11-23T00:24:49;4.00;99.90
3406;DHT22;10008;48.682;9.016;2022-11-23T00:27:15;4.00;99.90
3406;DHT22;10008;48.682;9.016;2022-11-23T00:29:41;4.00;99.90
3406;DHT22;10008;48.682;9.016;2022-11-23T00:32:07;4.10;99.90
3406;DHT22;10008;48.682;9.016;2022-11-23T00:34:36;4.20;99.90
3406;DHT22;10008;48.682;9.016;2022-11-23T00:37:01;4.30;99.90
3406;DHT22;10008;48.682;9.016;2022-11-23T00:39:27;4.30;99.90
3406;DHT22;10008;48.682;9.016;2022-11-23T00:41:53;4.40;99.90
3406;DHT22;10008;48.682;9.016;2022-11-23T00:44:19;4.30;99.90
3406;DHT22;10008;48.682;9.016;2022-11-23T00:46:44;4.40;99.90
3406;DHT22;10008;48.682;9.016;2022-11-23T00:49:10;4.40;99.90
3406;DHT22;10008;48.682;9.016;2022-11-23T00:51:36;4.40;99.90
3406;DHT22;10008;48.682;9.016;2022-11-23T00:54:04;4.50;99.90
3406;DHT22;10008;48.682;9.016;2022-11-23T00:56:31;4.50;99.90
3406;DHT22;10008;48.682;9.016;2022-11-23T00:58:59;4.50;99.90
3406;DHT22;10008;48.682;9.016;2022-11-23T01:01:27;4.50;99.90
3406;DHT22;10008;48.682;9.016;2022-11-23T01:03:57;4.50;99.90
3406;DHT22;10008;48.682;9.016;2022-11-23T01:06:28;4.60;99.90
3406;DHT22;10008;48.682;9.016;2022-11-23T01:08:56;4.60;99.90
3406;DHT22;10008;48.682;9.016;2022-11-23T01:11:25;4.60;99.90
3406;DHT22;10008;48.682;9.016;2022-11-23T01:13:52;4.50;99.90
3406;DHT22;10008;48.682;9.016;2022-11-23T01:16:29;5.40;99.90
3406;DHT22;10008;48.682;9.016;2022-11-23T01:18:59;4.60;99.90
3406;DHT22;10008;48.682;9.016;2022-11-23T01:21:27;4.70;99.90
3406;DHT22;10008;48.682;9.016;2022-11-23T01:23:54;5.50;99.90
3406;DHT22;10008;48.682;9.016;2022-11-23T01:26:20;4.90;99.90
3406;DHT22;10008;48.682;9.016;2022-11-23T01:28:46;4.90;99.90
3406;DHT22;10008;48.682;9.016;2022-11-23T01:31:18;4.90;99.90
3406;DHT22;10008;48.682;9.016;2022-11-23T01:33:44;4.80;99.90
3406;DHT22;10008;48.682;9.016;2022-11-23T01:36:16;4.70;99.90
3406;DHT22;10008;48.682;9.016;2022-11-23T01:38:42;4.60;99.90
3406;DHT22;10008;48.682;9.016;2022-11-23T01:41:12;4.50;99.90
3406;DHT22;10008;48.682;9.016;2022-11-23T01:43:38;4.50;99.90
3406;DHT22;10008;48.682;9.016;2022-11-23T01:46:05;4.50;99.90
3406;DHT22;10008;48.682;9.016;2022-11-23T01:48:39;4.40;99.90
3406;DHT22;10008;48.682;9.016;2022-11-23T01:51:14;4.40;99.90
3406;DHT22;10008;48.682;9.016;2022-11-23T01:53:41;4.40;99.90
3406;DHT22;10008;48.682;9.016;2022-11-23T01:56:10;4.40;99.90
3406;DHT22;10008;48.682;9.016;2022-11-23T01:58:41;4.30;99.90
3406;DHT22;10008;48.682;9.016;2022-11-23T02:01:08;4.40;99.90
3406;DHT22;10008;48.682;9.016;2022-11-23T02:03:35;4.20;99.90
3406;DHT22;10008;48.682;9.016;2022-11-23T02:06:10;4.20;99.90
3406;DHT22;10008;48.682;9.016;2022-11-23T02:08:38;4.10;99.90
3406;DHT22;10008;48.682;9.016;2022-11-23T02:11:04;4.10;99.90
3406;DHT22;10008;48.682;9.016;2022-11-23T02:13:30;4.10;99.90
3406;DHT22;10008;48.682;9.016;2022-11-23T02:15:57;5.00;99.90
3406;DHT22;10008;48.682;9.016;2022-11-23T02:18:29;4.20;99.90
3406;DHT22;10008;48.682;9.016;2022-11-23T02:20:58;3.90;99.90
3406;DHT22;10008;48.682;9.016;2022-11-23T02:26:12;4.00;99.90
3406;DHT22;10008;48.682;9.016;2022-11-23T02:28:43;4.00;99.90
3406;DHT22;10008;48.682;9.016;2022-11-23T02:31:10;4.80;99.90
3406;DHT22;10008;48.682;9.016;2022-11-23T02:33:40;3.90;99.90
3406;DHT22;10008;48.682;9.016;2022-11-23T02:36:29;3.80;99.90
3406;DHT22;10008;48.682;9.016;2022-11-23T02:38:58;3.70;99.90
3406;DHT22;10008;48.682;9.016;2022-11-23T02:41:25;3.70;99.90
3406;DHT22;10008;48.682;9.016;2022-11-23T02:43:54;3.70;99.90
3406;DHT22;10008;48.682;9.016;2022-11-23T02:46:24;3.70;99.90
3406;DHT22;10008;48.682;9.016;2022-11-23T02:48:49;3.70;99.90
3406;DHT22;10008;48.682;9.016;2022-11-23T02:51:15;4.60;99.90
3406;DHT22;10008;48.682;9.016;2022-11-23T02:53:41;3.70;99.90
3406;DHT22;10008;48.682;9.016;2022-11-23T02:56:09;3.80;99.90
3406;DHT22;10008;48.682;9.016;2022-11-23T02:58:34;3.80;99.90
3406;DHT22;10008;48.682;9.016;2022-11-23T03:01:00;3.80;99.90
3406;DHT22;10008;48.682;9.016;2022-11-23T03:03:26;3.70;99.90
3406;DHT22;10008;48.682;9.016;2022-11-23T03:05:51;3.70;99.90
3406;DHT22;10008;48.682;9.016;2022-11-23T03:08:17;3.70;99.90
3406;DHT22;10008;48.682;9.016;2022-11-23T03:10:43;4.10;99.90
3406;DHT22;10008;48.682;9.016;2022-11-23T03:13:10;3.60;99.90
3406;DHT22;10008;48.682;9.016;2022-11-23T03:15:38;3.60;99.90
3406;DHT22;10008;48.682;9.016;2022-11-23T03:18:04;3.60;99.90
3406;DHT22;10008;48.682;9.016;2022-11-23T03:20:31;3.60;99.90
3406;DHT22;10008;48.682;9.016;2022-11-23T03:22:57;3.60;99.90
3406;DHT22;10008;48.682;9.016;2022-11-23T03:25:23;3.60;99.90
3406;DHT22;10008;48.682;9.016;2022-11-23T03:27:52;3.60;99.90
3406;DHT22;10008;48.682;9.016;2022-11-23T03:30:19;3.50;99.90
3406;DHT22;10008;48.682;9.016;2022-11-23T03:32:46;3.50;99.90
3406;DHT22;10008;48.682;9.016;2022-11-23T03:35:12;3.50;99.90
3406;DHT22;10008;48.682;9.016;2022-11-23T03:37:57;3.40;99.90
3406;DHT22;10008;48.682;9.016;2022-11-23T03:40:23;3.70;99.90
3406;DHT22;10008;48.682;9.016;2022-11-23T03:43:08;4.00;99.90
3406;DHT22;10008;48.682;9.016;2022-11-23T03:45:33;4.50;99.90
3406;DHT22;10008;48.682;9.016;2022-11-23T03:47:59;3.30;99.90
3406;DHT22;10008;48.682;9.016;2022-11-23T03:50:25;4.40;99.90
3406;DHT22;10008;48.682;9.016;2022-11-23T03:52:50;3.60;99.90
3406;DHT22;10008;48.682;9.016;2022-11-23T03:55:16;3.50;99.90
3406;DHT22;10008;48.682;9.016;2022-11-23T03:57:42;4.60;99.90
3406;DHT22;10008;48.682;9.016;2022-11-23T04:00:09;3.40;99.90
3406;DHT22;10008;48.682;9.016;2022-11-23T04:02:38;3.50;99.90
3406;DHT22;10008;48.682;9.016;2022-11-23T04:05:09;3.60;99.90
3406;DHT22;10008;48.682;9.016;2022-11-23T04:07:54;3.60;99.90
3406;DHT22;10008;48.682;9.016;2022-11-23T04:10:23;3.70;99.90
3406;DHT22;10008;48.682;9.016;2022-11-23T04:13:18;3.80;99.90
3406;DHT22;10008;48.682;9.016;2022-11-23T04:15:44;3.90;99.90
3406;DHT22;10008;48.682;9.016;2022-11-23T04:18:10;4.00;99.90
3406;DHT22;10008;48.682;9.016;2022-11-23T04:20:37;4.00;99.90
3406;DHT22;10008;48.682;9.016;2022-11-23T04:23:03;4.10;99.90
3406;DHT22;10008;48.682;9.016;2022-11-23T04:25:29;5.40;99.90
3406;DHT22;10008;48.682;9.016;2022-11-23T04:27:56;4.10;99.90
3406;DHT22;10008;48.682;9.016;2022-11-23T04:30:23;4.20;99.90
3406;DHT22;10008;48.682;9.016;2022-11-23T04:32:51;4.20;99.90
3406;DHT22;10008;48.682;9.016;2022-11-23T04:35:19;4.30;99.90
3406;DHT22;10008;48.682;9.016;2022-11-23T04:37:48;4.30;99.90
3406;DHT22;10008;48.682;9.016;2022-11-23T04:40:14;4.40;99.90
3406;DHT22;10008;48.682;9.016;2022-11-23T04:42:46;4.40;99.90
3406;DHT22;10008;48.682;9.016;2022-11-23T04:45:12;4.30;99.90
3406;DHT22;10008;48.682;9.016;2022-11-23T04:47:38;4.30;99.90
3406;DHT22;10008;48.682;9.016;2022-11-23T04:50:09;4.30;99.90
3406;DHT22;10008;48.682;9.016;2022-11-23T04:52:35;4.30;99.90
3406;DHT22;10008;48.682;9.016;2022-11-23T04:55:05;4.30;99.90
3406;DHT22;10008;48.682;9.016;2022-11-23T04:57:32;4.20;99.90
3406;DHT22;10008;48.682;9.016;2022-11-23T04:59:58;4.20;99.90
3406;DHT22;10008;48.682;9.016;2022-11-23T05:02:26;4.10;99.90
3406;DHT22;10008;48.682;9.016;2022-11-23T05:05:10;4.10;99.90
3406;DHT22;10008;48.682;9.016;2022-11-23T05:07:36;4.10;99.90
3406;DHT22;10008;48.682;9.016;2022-11-23T05:10:03;4.20;99.90
3406;DHT22;10008;48.682;9.016;2022-11-23T05:12:30;4.20;99.90
3406;DHT22;10008;48.682;9.016;2022-11-23T05:14:57;5.10;99.90
3406;DHT22;10008;48.682;9.016;2022-11-23T05:17:30;4.10;99.90
3406;DHT22;10008;48.682;9.016;2022-11-23T05:19:56;4.20;99.90
3406;DHT22;10008;48.682;9.016;2022-11-23T05:22:22;4.30;99.90
3406;DHT22;10008;48.682;9.016;2022-11-23T05:24:48;4.30;99.90
3406;DHT22;10008;48.682;9.016;2022-11-23T05:27:18;4.40;99.90
3406;DHT22;10008;48.682;9.016;2022-11-23T05:29:44;4.40;99.90
3406;DHT22;10008;48.682;9.016;2022-11-23T05:32:10;4.50;99.90
3406;DHT22;10008;48.682;9.016;2022-11-23T05:34:37;4.50;99.90
3406;DHT22;10008;48.682;9.016;2022-11-23T05:37:04;4.60;99.90
3406;DHT22;10008;48.682;9.016;2022-11-23T05:39:30;4.60;99.90
3406;DHT22;10008;48.682;9.016;2022-11-23T05:41:57;4.60;99.90
3406;DHT22;10008;48.682;9.016;2022-11-23T05:44:37;4.50;99.90
3406;DHT22;10008;48.682;9.016;2022-11-23T05:47:06;4.50;99.90
3406;DHT22;10008;48.682;9.016;2022-11-23T05:49:33;4.50;99.90
3406;DHT22;10008;48.682;9.016;2022-11-23T05:52:01;4.80;99.90
3406;DHT22;10008;48.682;9.016;2022-11-23T05:54:28;5.90;99.90
3406;DHT22;10008;48.682;9.016;2022-11-23T05:57:05;5.30;99.90
3406;DHT22;10008;48.682;9.016;2022-11-23T05:59:36;4.60;99.90
3406;DHT22;10008;48.682;9.016;2022-11-23T06:02:02;4.70;99.90
3406;DHT22;10008;48.682;9.016;2022-11-23T06:04:31;4.70;99.90
3406;DHT22;10008;48.682;9.016;2022-11-23T06:06:58;4.80;99.90
3406;DHT22;10008;48.682;9.016;2022-11-23T06:09:27;4.80;99.90
3406;DHT22;10008;48.682;9.016;2022-11-23T06:11:57;4.80;99.90
3406;DHT22;10008;48.682;9.016;2022-11-23T06:14:23;4.70;99.90
3406;DHT22;10008;48.682;9.016;2022-11-23T06:16:50;4.70;99.90
3406;DHT22;10008;48.682;9.016;2022-11-23T06:19:35;4.60;99.90
3406;DHT22;10008;48.682;9.016;2022-11-23T06:22:01;4.70;99.90
3406;DHT22;10008;48.682;9.016;2022-11-23T06:24:31;4.70;99.90
3406;DHT22;10008;48.682;9.016;2022-11-23T06:27:15;5.60;99.90
3406;DHT22;10008;48.682;9.016;2022-11-23T06:29:42;4.80;99.90
3406;DHT22;10008;48.682;9.016;2022-11-23T06:32:08;5.60;99.90
3406;DHT22;10008;48.682;9.016;2022-11-23T06:34:34;4.70;99.90
3406;DHT22;10008;48.682;9.016;2022-11-23T06:37:00;4.90;99.90
3406;DHT22;10008;48.682;9.016;2022-11-23T06:39:27;4.70;99.90
3406;DHT22;10008;48.682;9.016;2022-11-23T06:41:52;4.70;99.90
3406;DHT22;10008;48.682;9.016;2022-11-23T06:44:18;4.70;99.90
3406;DHT22;10008;48.682;9.016;2022-11-23T06:46:44;4.70;99.90
3406;DHT22;10008;48.682;9.016;2022-11-23T06:49:10;4.60;99.90
3406;DHT22;10008;48.682;9.016;2022-11-23T06:51:36;4.60;99.90
3406;DHT22;10008;48.682;9.016;2022-11-23T06:54:02;4.90;99.90
3406;DHT22;10008;48.682;9.016;2022-11-23T06:56:30;4.70;99.90
3406;DHT22;10008;48.682;9.016;2022-11-23T06:58:56;4.70;99.90
3406;DHT22;10008;48.682;9.016;2022-11-23T07:01:25;4.60;99.90
3406;DHT22;10008;48.682;9.016;2022-11-23T07:03:59;4.60;99.90
3406;DHT22;10008;48.682;9.016;2022-11-23T07:06:31;4.60;99.90
3406;DHT22;10008;48.682;9.016;2022-11-23T07:09:01;4.50;99.90
3406;DHT22;10008;48.682;9.016;2022-11-23T07:11:43;5.10;99.90
3406;DHT22;10008;48.682;9.016;2022-11-23T07:14:10;5.60;99.90
3406;DHT22;10008;48.682;9.016;2022-11-23T07:16:38;4.40;99.90
3406;DHT22;10008;48.682;9.016;2022-11-23T07:19:04;4.40;99.90
3406;DHT22;10008;48.682;9.016;2022-11-23T07:21:30;4.40;99.90
3406;DHT22;10008;48.682;9.016;2022-11-23T07:23:55;4.40;99.90
3406;DHT22;10008;48.682;9.016;2022-11-23T07:26:21;4.40;99.90
3406;DHT22;10008;48.682;9.016;2022-11-23T07:28:47;4.40;99.90
3406;DHT22;10008;48.682;9.016;2022-11-23T07:31:13;4.60;99.90
3406;DHT22;10008;48.682;9.016;2022-11-23T07:33:46;4.40;99.90
3406;DHT22;10008;48.682;9.016;2022-11-23T07:36:12;4.50;99.90
3406;DHT22;10008;48.682;9.016;2022-11-23T07:38:40;4.40;99.90
3406;DHT22;10008;48.682;9.016;2022-11-23T07:41:07;4.40;99.90
3406;DHT22;10008;48.682;9.016;2022-11-23T07:43:50;4.40;99.90
3406;DHT22;10008;48.682;9.016;2022-11-23T07:46:17;4.40;99.90
3406;DHT22;10008;48.682;9.016;2022-11-23T07:48:43;4.80;99.90
3406;DHT22;10008;48.682;9.016;2022-11-23T07:51:09;5.40;99.90
3406;DHT22;10008;48.682;9.016;2022-11-23T07:53:35;4.40;99.90
3406;DHT22;10008;48.682;9.016;2022-11-23T07:56:01;4.40;99.90
3406;DHT22;10008;48.682;9.016;2022-11-23T07:58:26;4.50;99.90
3406;DHT22;10008;48.682;9.016;2022-11-23T08:00:52;4.50;99.90
3406;DHT22;10008;48.682;9.016;2022-11-23T08:03:18;4.60;99.90
3406;DHT22;10008;48.682;9.016;2022-11-23T08:05:44;4.60;99.90
3406;DHT22;10008;48.682;9.016;2022-11-23T08:08:10;4.70;99.90
3406;DHT22;10008;48.682;9.016;2022-11-23T08:10:36;5.30;99.90
3406;DHT22;10008;48.682;9.016;2022-11-23T08:13:04;4.70;99.90
3406;DHT22;10008;48.682;9.016;2022-11-23T08:15:30;4.70;99.90
3406;DHT22;10008;48.682;9.016;2022-11-23T08:17:57;4.70;99.90
3406;DHT22;10008;48.682;9.016;2022-11-23T08:20:25;4.80;99.90
3406;DHT22;10008;48.682;9.016;2022-11-23T08:22:51;4.80;99.90
3406;DHT22;10008;48.682;9.016;2022-11-23T08:25:17;4.90;99.90
3406;DHT22;10008;48.682;9.016;2022-11-23T08:27:43;4.90;99.90
3406;DHT22;10008;48.682;9.016;2022-11-23T08:30:09;4.90;99.90
3406;DHT22;10008;48.682;9.016;2022-11-23T08:32:35;5.00;99.90
3406;DHT22;10008;48.682;9.016;2022-11-23T08:35:00;5.00;99.90
3406;DHT22;10008;48.682;9.016;2022-11-23T08:37:26;5.00;99.90
3406;DHT22;10008;48.682;9.016;2022-11-23T08:39:52;5.10;99.90
3406;DHT22;10008;48.682;9.016;2022-11-23T08:42:17;5.20;99.90
3406;DHT22;10008;48.682;9.016;2022-11-23T08:44:43;5.20;99.90
3406;DHT22;10008;48.682;9.016;2022-11-23T08:47:09;5.20;99.90
3406;DHT22;10008;48.682;9.016;2022-11-23T08:49:35;5.20;99.90
3406;DHT22;10008;48.682;9.016;2022-11-23T08:52:00;5.20;99.90
3406;DHT22;10008;48.682;9.016;2022-11-23T08:54:26;5.30;99.90
3406;DHT22;10008;48.682;9.016;2022-11-23T08:56:52;5.40;99.90
3406;DHT22;10008;48.682;9.016;2022-11-23T08:59:18;5.30;99.90
3406;DHT22;10008;48.682;9.016;2022-11-23T09:01:45;5.30;99.90
3406;DHT22;10008;48.682;9.016;2022-11-23T09:04:10;5.80;99.90
3406;DHT22;10008;48.682;9.016;2022-11-23T09:06:36;5.40;99.90
3406;DHT22;10008;48.682;9.016;2022-11-23T09:09:02;5.50;99.90
3406;DHT22;10008;48.682;9.016;2022-11-23T09:11:28;5.50;99.90
3406;DHT22;10008;48.682;9.016;2022-11-23T09:13:54;5.50;99.90
3406;DHT22;10008;48.682;9.016;2022-11-23T09:16:20;5.70;99.90
3406;DHT22;10008;48.682;9.016;2022-11-23T09:18:46;5.70;99.90
3406;DHT22;10008;48.682;9.016;2022-11-23T09:21:14;5.80;99.90
3406;DHT22;10008;48.682;9.016;2022-11-23T09:23:39;5.90;99.90
3406;DHT22;10008;48.682;9.016;2022-11-23T09:26:05;6.00;99.90
3406;DHT22;10008;48.682;9.016;2022-11-23T09:28:31;6.00;99.90
3406;DHT22;10008;48.682;9.016;2022-11-23T09:31:00;6.10;99.90
3406;DHT22;10008;48.682;9.016;2022-11-23T09:33:26;6.10;99.90
3406;DHT22;10008;48.682;9.016;2022-11-23T09:35:59;6.30;99.90
3406;DHT22;10008;48.682;9.016;2022-11-23T09:38:26;6.40;99.90
3406;DHT22;10008;48.682;9.016;2022-11-23T09:41:11;6.40;99.90
3406;DHT22;10008;48.682;9.016;2022-11-23T09:44:01;6.50;99.90
3406;DHT22;10008;48.682;9.016;2022-11-23T09:49:43;6.60;99.90
3406;DHT22;10008;48.682;9.016;2022-11-23T09:52:21;6.70;99.90
3406;DHT22;10008;48.682;9.016;2022-11-23T09:54:54;6.70;99.90
3406;DHT22;10008;48.682;9.016;2022-11-23T09:57:23;6.80;99.90
3406;DHT22;10008;48.682;9.016;2022-11-23T10:02:32;6.90;99.90
3406;DHT22;10008;48.682;9.016;2022-11-23T10:05:00;6.90;99.90
3406;DHT22;10008;48.682;9.016;2022-11-23T10:10:40;7.00;99.90
3406;DHT22;10008;48.682;9.016;2022-11-23T10:21:12;7.10;99.90
3406;DHT22;10008;48.682;9.016;2022-11-23T10:23:52;7.00;99.90
3406;DHT22;10008;48.682;9.016;2022-11-23T10:26:27;7.10;99.90
3406;DHT22;10008;48.682;9.016;2022-11-23T10:28:55;7.00;99.90
3406;DHT22;10008;48.682;9.016;2022-11-23T10:31:23;7.10;99.90
3406;DHT22;10008;48.682;9.016;2022-11-23T10:36:22;7.40;99.90
3406;DHT22;10008;48.682;9.016;2022-11-23T10:38:56;7.50;99.90
3406;DHT22;10008;48.682;9.016;2022-11-23T10:41:22;7.60;99.90
3406;DHT22;10008;48.682;9.016;2022-11-23T10:44:11;7.60;99.90
3406;DHT22;10008;48.682;9.016;2022-11-23T10:46:42;7.80;99.90
3406;DHT22;10008;48.682;9.016;2022-11-23T10:49:19;7.80;99.90
3406;DHT22;10008;48.682;9.016;2022-11-23T10:54:48;8.00;99.90
3406;DHT22;10008;48.682;9.016;2022-11-23T10:57:33;8.10;99.90
3406;DHT22;10008;48.682;9.016;2022-11-23T11:02:44;8.20;99.90
3406;DHT22;10008;48.682;9.016;2022-11-23T11:07:56;8.30;99.90
3406;DHT22;10008;48.682;9.016;2022-11-23T11:10:35;8.40;99.90
3406;DHT22;10008;48.682;9.016;2022-11-23T11:13:02;8.50;99.90
3406;DHT22;10008;48.682;9.016;2022-11-23T11:15:28;8.70;99.90
3406;DHT22;10008;48.682;9.016;2022-11-23T11:17:56;8.80;99.90
3406;DHT22;10008;48.682;9.016;2022-11-23T11:20:31;8.90;99.90
3406;DHT22;10008;48.682;9.016;2022-11-23T11:23:19;9.00;99.90
3406;DHT22;10008;48.682;9.016;2022-11-23T11:25:46;9.00;99.90
3406;DHT22;10008;48.682;9.016;2022-11-23T11:28:38;9.10;99.90
3406;DHT22;10008;48.682;9.016;2022-11-23T11:36:16;9.20;99.90
3406;DHT22;10008;48.682;9.016;2022-11-23T11:38:47;9.20;99.90
3406;DHT22;10008;48.682;9.016;2022-11-23T11:41:14;9.30;99.90
3406;DHT22;10008;48.682;9.016;2022-11-23T11:43:50;9.30;99.90
3406;DHT22;10008;48.682;9.016;2022-11-23T11:46:22;9.50;99.90
3406;DHT22;10008;48.682;9.016;2022-11-23T11:48:54;9.60;99.90
3406;DHT22;10008;48.682;9.016;2022-11-23T11:51:33;9.70;99.90
3406;DHT22;10008;48.682;9.016;2022-11-23T11:56:53;9.70;99.90
3406;DHT22;10008;48.682;9.016;2022-11-23T11:59:27;9.70;99.80
3406;DHT22;10008;48.682;9.016;2022-11-23T12:04:39;10.10;99.90
3406;DHT22;10008;48.682;9.016;2022-11-23T12:07:11;11.00;98.90
3406;DHT22;10008;48.682;9.016;2022-11-23T12:09:41;12.10;98.20
3406;DHT22;10008;48.682;9.016;2022-11-23T12:12:15;13.60;95.30
3406;DHT22;10008;48.682;9.016;2022-11-23T12:14:43;14.50;92.60
3406;DHT22;10008;48.682;9.016;2022-11-23T12:17:42;14.80;91.50
3406;DHT22;10008;48.682;9.016;2022-11-23T12:22:57;15.60;87.40
3406;DHT22;10008;48.682;9.016;2022-11-23T12:25:31;15.80;84.40
3406;DHT22;10008;48.682;9.016;2022-11-23T12:37:09;17.10;79.50
3406;DHT22;10008;48.682;9.016;2022-11-23T12:42:49;17.50;76.60
3406;DHT22;10008;48.682;9.016;2022-11-23T12:53:50;15.40;80.70
3406;DHT22;10008;48.682;9.016;2022-11-23T12:58:52;15.60;81.70
3406;DHT22;10008;48.682;9.016;2022-11-23T13:01:28;15.50;80.80
3406;DHT22;10008;48.682;9.016;2022-11-23T13:23:37;16.00;78.00
3406;DHT22;10008;48.682;9.016;2022-11-23T13:26:13;16.30;79.50
3406;DHT22;10008;48.682;9.016;2022-11-23T13:28:40;15.90;78.70
3406;DHT22;10008;48.682;9.016;2022-11-23T13:33:43;15.70;81.00
3406;DHT22;10008;48.682;9.016;2022-11-23T13:36:11;15.10;79.80
3406;DHT22;10008;48.682;9.016;2022-11-23T13:38:42;14.60;82.70
3406;DHT22;10008;48.682;9.016;2022-11-23T13:41:56;14.60;82.60
3406;DHT22;10008;48.682;9.016;2022-11-23T13:44:29;14.60;83.10
3406;DHT22;10008;48.682;9.016;2022-11-23T13:46:59;14.60;83.50
3406;DHT22;10008;48.682;9.016;2022-11-23T13:49:51;14.30;83.30
3406;DHT22;10008;48.682;9.016;2022-11-23T13:57:25;14.10;83.20
3406;DHT22;10008;48.682;9.016;2022-11-23T13:59:51;13.80;83.20
3406;DHT22;10008;48.682;9.016;2022-11-23T14:02:29;13.10;85.10
3406;DHT22;10008;48.682;9.016;2022-11-23T14:05:30;12.50;87.60
3406;DHT22;10008;48.682;9.016;2022-11-23T14:07:59;11.80;90.20
3406;DHT22;10008;48.682;9.016;2022-11-23T14:10:29;11.30;91.00
3406;DHT22;10008;48.682;9.016;2022-11-23T14:13:02;11.20;91.90
3406;DHT22;10008;48.682;9.016;2022-11-23T14:15:35;11.00;92.20
3406;DHT22;10008;48.682;9.016;2022-11-23T14:18:09;10.70;93.00
3406;DHT22;10008;48.682;9.016;2022-11-23T14:38:19;9.80;96.50
3406;DHT22;10008;48.682;9.016;2022-11-23T14:41:08;9.70;96.90
3406;DHT22;10008;48.682;9.016;2022-11-23T14:43:35;9.60;97.80
3406;DHT22;10008;48.682;9.016;2022-11-23T14:46:12;9.60;97.60
3406;DHT22;10008;48.682;9.016;2022-11-23T14:48:38;9.50;97.80
3406;DHT22;10008;48.682;9.016;2022-11-23T14:51:22;9.40;98.10
3406;DHT22;10008;48.682;9.016;2022-11-23T14:53:53;9.40;98.50
3406;DHT22;10008;48.682;9.016;2022-11-23T14:58:49;9.10;98.10
3406;DHT22;10008;48.682;9.016;2022-11-23T15:01:19;9.10;98.30
3406;DHT22;10008;48.682;9.016;2022-11-23T15:03:57;9.00;98.70
3406;DHT22;10008;48.682;9.016;2022-11-23T15:06:32;8.80;98.70
3406;DHT22;10008;48.682;9.016;2022-11-23T15:12:17;8.60;99.90
3406;DHT22;10008;48.682;9.016;2022-11-23T15:14:44;8.50;99.90
3406;DHT22;10008;48.682;9.016;2022-11-23T15:17:28;8.40;99.90
3406;DHT22;10008;48.682;9.016;2022-11-23T15:19:58;8.30;99.90
3406;DHT22;10008;48.682;9.016;2022-11-23T15:22:24;8.20;99.90
3406;DHT22;10008;48.682;9.016;2022-11-23T15:24:51;8.20;99.90
3406;DHT22;10008;48.682;9.016;2022-11-23T15:27:25;8.20;99.90
3406;DHT22;10008;48.682;9.016;2022-11-23T15:29:59;8.00;99.90
3406;DHT22;10008;48.682;9.016;2022-11-23T15:32:31;8.00;99.90
3406;DHT22;10008;48.682;9.016;2022-11-23T15:35:00;8.00;99.90
3406;DHT22;10008;48.682;9.016;2022-11-23T15:37:27;8.00;99.90
3406;DHT22;10008;48.682;9.016;2022-11-23T15:39:54;8.00;99.90
3406;DHT22;10008;48.682;9.016;2022-11-23T15:42:22;8.00;99.90
3406;DHT22;10008;48.682;9.016;2022-11-23T15:44:49;8.00;99.90
3406;DHT22;10008;48.682;9.016;2022-11-23T15:47:23;8.00;99.90
3406;DHT22;10008;48.682;9.016;2022-11-23T15:50:01;8.00;99.90
3406;DHT22;10008;48.682;9.016;2022-11-23T15:52:33;7.90;99.90
3406;DHT22;10008;48.682;9.016;2022-11-23T15:55:04;7.90;99.90
3406;DHT22;10008;48.682;9.016;2022-11-23T15:57:31;7.90;99.90
3406;DHT22;10008;48.682;9.016;2022-11-23T15:59:59;7.90;99.90
3406;DHT22;10008;48.682;9.016;2022-11-23T16:02:29;7.80;99.90
3406;DHT22;10008;48.682;9.016;2022-11-23T16:07:33;7.90;99.90
3406;DHT22;10008;48.682;9.016;2022-11-23T16:10:18;7.90;99.90
3406;DHT22;10008;48.682;9.016;2022-11-23T16:17:55;8.10;99.90
3406;DHT22;10008;48.682;9.016;2022-11-23T16:20:25;8.10;99.90
3406;DHT22;10008;48.682;9.016;2022-11-23T16:22:52;8.20;99.90
3406;DHT22;10008;48.682;9.016;2022-11-23T16:25:32;8.20;99.90
3406;DHT22;10008;48.682;9.016;2022-11-23T16:28:22;8.20;99.90
3406;DHT22;10008;48.682;9.016;2022-11-23T16:30:44;8.20;99.90
3406;DHT22;10008;48.682;9.016;2022-11-23T16:33:15;8.20;99.90
3406;DHT22;10008;48.682;9.016;2022-11-23T16:35:41;8.20;99.90
3406;DHT22;10008;48.682;9.016;2022-11-23T16:38:07;8.20;99.90
3406;DHT22;10008;48.682;9.016;2022-11-23T16:40:33;8.20;99.90
3406;DHT22;10008;48.682;9.016;2022-11-23T16:42:59;8.20;99.90
3406;DHT22;10008;48.682;9.016;2022-11-23T16:45:25;8.20;99.90
3406;DHT22;10008;48.682;9.016;2022-11-23T16:48:02;8.10;99.90
3406;DHT22;10008;48.682;9.016;2022-11-23T16:50:30;8.10;99.90
3406;DHT22;10008;48.682;9.016;2022-11-23T16:53:00;8.00;99.90
3406;DHT22;10008;48.682;9.016;2022-11-23T16:55:26;8.50;99.90
3406;DHT22;10008;48.682;9.016;2022-11-23T16:57:52;8.00;99.90
3406;DHT22;10008;48.682;9.016;2022-11-23T17:00:20;7.80;99.90
3406;DHT22;10008;48.682;9.016;2022-11-23T17:02:47;7.70;99.90
3406;DHT22;10008;48.682;9.016;2022-11-23T17:05:18;7.70;99.90
3406;DHT22;10008;48.682;9.016;2022-11-23T17:07:44;7.50;99.90
3406;DHT22;10008;48.682;9.016;2022-11-23T17:10:11;7.40;99.90
3406;DHT22;10008;48.682;9.016;2022-11-23T17:12:38;7.30;99.90
3406;DHT22;10008;48.682;9.016;2022-11-23T17:15:04;7.20;99.90
3406;DHT22;10008;48.682;9.016;2022-11-23T17:17:30;7.20;99.90
3406;DHT22;10008;48.682;9.016;2022-11-23T17:19:56;7.20;99.90
3406;DHT22;10008;48.682;9.016;2022-11-23T17:22:22;7.10;99.90
3406;DHT22;10008;48.682;9.016;2022-11-23T17:24:48;7.10;99.90
3406;DHT22;10008;48.682;9.016;2022-11-23T17:27:22;7.00;99.90
3406;DHT22;10008;48.682;9.016;2022-11-23T17:29:57;6.90;99.90
3406;DHT22;10008;48.682;9.016;2022-11-23T17:32:24;6.80;99.90
3406;DHT22;10008;48.682;9.016;2022-11-23T17:34:50;6.70;99.90
3406;DHT22;10008;48.682;9.016;2022-11-23T17:37:19;6.50;99.90
3406;DHT22;10008;48.682;9.016;2022-11-23T17:39:46;6.40;99.90
3406;DHT22;10008;48.682;9.016;2022-11-23T17:42:12;6.30;99.90
3406;DHT22;10008;48.682;9.016;2022-11-23T17:44:38;6.20;99.90
3406;DHT22;10008;48.682;9.016;2022-11-23T17:47:04;6.10;99.90
3406;DHT22;10008;48.682;9.016;2022-11-23T17:49:31;6.10;99.90
3406;DHT22;10008;48.682;9.016;2022-11-23T17:51:57;6.30;99.90
3406;DHT22;10008;48.682;9.016;2022-11-23T17:54:23;6.10;99.90
3406;DHT22;10008;48.682;9.016;2022-11-23T17:56:50;6.00;99.90
3406;DHT22;10008;48.682;9.016;2022-11-23T17:59:18;6.00;99.90
3406;DHT22;10008;48.682;9.016;2022-11-23T18:01:44;5.90;99.90
3406;DHT22;10008;48.682;9.016;2022-11-23T18:04:13;5.90;99.90
3406;DHT22;10008;48.682;9.016;2022-11-23T18:06:38;5.90;99.90
3406;DHT22;10008;48.682;9.016;2022-11-23T18:09:04;5.90;99.90
3406;DHT22;10008;48.682;9.016;2022-11-23T18:11:31;5.90;99.90
3406;DHT22;10008;48.682;9.016;2022-11-23T18:13:57;5.90;99.90
3406;DHT22;10008;48.682;9.016;2022-11-23T18:16:24;5.90;99.90
3406;DHT22;10008;48.682;9.016;2022-11-23T18:18:49;5.80;99.90